Terminal Aerodrome Forecast
Issued by NWS Brownsville, TX

Home | Current Version | Previous Version | Text Only | Print | Product List | Glossary On
Versions: 1 2 3 4 5 6 7 8 9 10 11 12 13 14 15 16 17 18
000
FTUS44 KBRO 280619 AAA
TAFMFE
TAF AMD
KMFE 280619Z 2806/2906 14015G18KT P6SM SCT020
      TEMPO 2806/2810 BKN016
     FM281100 14010KT 6SM HZ FEW015
     FM281400 15018G25KT P6SM SKC
     FM290300 14012KT P6SM SCT020=

USA.gov is the U.S. government's official web portal to all federal, state and local government web resources and services.